sensor_id;sensor_type;location;lat;lon;timestamp;temperature;humidity
17859;DHT22;35426;30.698;104.050;2022-07-11T00:02:10;32.20;99.90
17859;DHT22;35426;30.698;104.050;2022-07-11T00:04:45;32.10;99.90
17859;DHT22;35426;30.698;104.050;2022-07-11T00:10:18;32.60;99.90
17859;DHT22;35426;30.698;104.050;2022-07-11T00:12:51;33.30;99.90
17859;DHT22;35426;30.698;104.050;2022-07-11T00:15:29;32.50;99.90
17859;DHT22;35426;30.698;104.050;2022-07-11T00:18:03;32.60;99.90
17859;DHT22;35426;30.698;104.050;2022-07-11T00:20:46;32.60;99.90
17859;DHT22;35426;30.698;104.050;2022-07-11T00:23:29;32.50;99.90
17859;DHT22;35426;30.698;104.050;2022-07-11T00:26:05;32.30;99.90
17859;DHT22;35426;30.698;104.050;2022-07-11T00:28:56;32.10;99.90
17859;DHT22;35426;30.698;104.050;2022-07-11T00:31:32;31.90;99.90
17859;DHT22;35426;30.698;104.050;2022-07-11T00:36:59;31.60;99.90
17859;DHT22;35426;30.698;104.050;2022-07-11T00:39:33;31.80;99.90
17859;DHT22;35426;30.698;104.050;2022-07-11T00:42:26;31.60;99.90
17859;DHT22;35426;30.698;104.050;2022-07-11T00:44:59;31.50;99.90
17859;DHT22;35426;30.698;104.050;2022-07-11T00:48:09;31.50;99.90
17859;DHT22;35426;30.698;104.050;2022-07-11T00:50:43;31.70;99.90
17859;DHT22;35426;30.698;104.050;2022-07-11T00:53:17;32.30;99.90
17859;DHT22;35426;30.698;104.050;2022-07-11T00:56:10;33.10;99.90
17859;DHT22;35426;30.698;104.050;2022-07-11T00:58:46;33.40;99.90
17859;DHT22;35426;30.698;104.050;2022-07-11T01:01:41;33.60;99.90
17859;DHT22;35426;30.698;104.050;2022-07-11T01:04:16;33.80;99.90
17859;DHT22;35426;30.698;104.050;2022-07-11T01:06:56;34.50;99.90
17859;DHT22;35426;30.698;104.050;2022-07-11T01:09:30;34.80;99.90
17859;DHT22;35426;30.698;104.050;2022-07-11T01:15:15;35.20;99.90
17859;DHT22;35426;30.698;104.050;2022-07-11T01:17:49;34.70;99.90
17859;DHT22;35426;30.698;104.050;2022-07-11T01:20:26;35.10;99.90
17859;DHT22;35426;30.698;104.050;2022-07-11T01:23:27;34.90;99.90
17859;DHT22;35426;30.698;104.050;2022-07-11T01:26:17;35.00;99.90
17859;DHT22;35426;30.698;104.050;2022-07-11T01:28:53;35.10;99.90
17859;DHT22;35426;30.698;104.050;2022-07-11T01:31:28;34.90;99.90
17859;DHT22;35426;30.698;104.050;2022-07-11T01:36:53;35.60;99.90
17859;DHT22;35426;30.698;104.050;2022-07-11T01:39:29;34.70;99.90
17859;DHT22;35426;30.698;104.050;2022-07-11T01:42:04;34.50;99.90
17859;DHT22;35426;30.698;104.050;2022-07-11T01:47:51;34.20;99.90
17859;DHT22;35426;30.698;104.050;2022-07-11T01:50:41;34.00;99.90
17859;DHT22;35426;30.698;104.050;2022-07-11T01:53:15;33.80;99.90
17859;DHT22;35426;30.698;104.050;2022-07-11T02:01:17;33.70;99.90
17859;DHT22;35426;30.698;104.050;2022-07-11T02:03:54;33.80;99.90
17859;DHT22;35426;30.698;104.050;2022-07-11T02:06:28;34.20;99.90
17859;DHT22;35426;30.698;104.050;2022-07-11T02:09:01;34.10;99.90
17859;DHT22;35426;30.698;104.050;2022-07-11T02:11:36;34.50;99.90
17859;DHT22;35426;30.698;104.050;2022-07-11T02:14:11;34.00;99.90
17859;DHT22;35426;30.698;104.050;2022-07-11T02:17:01;34.00;99.90
17859;DHT22;35426;30.698;104.050;2022-07-11T02:22:27;33.70;99.90
17859;DHT22;35426;30.698;104.050;2022-07-11T02:25:20;33.60;99.90
17859;DHT22;35426;30.698;104.050;2022-07-11T02:27:55;33.20;99.90
17859;DHT22;35426;30.698;104.050;2022-07-11T02:30:47;33.50;99.90
17859;DHT22;35426;30.698;104.050;2022-07-11T02:33:21;33.10;99.90
17859;DHT22;35426;30.698;104.050;2022-07-11T02:36:08;33.30;99.90
17859;DHT22;35426;30.698;104.050;2022-07-11T02:38:43;33.30;99.90
17859;DHT22;35426;30.698;104.050;2022-07-11T02:41:22;33.20;99.90
17859;DHT22;35426;30.698;104.050;2022-07-11T02:46:50;32.80;99.90
17859;DHT22;35426;30.698;104.050;2022-07-11T02:49:25;32.80;99.90
17859;DHT22;35426;30.698;104.050;2022-07-11T02:52:16;32.80;99.90
17859;DHT22;35426;30.698;104.050;2022-07-11T02:54:50;33.00;99.90
17859;DHT22;35426;30.698;104.050;2022-07-11T02:57:24;33.00;99.90
17859;DHT22;35426;30.698;104.050;2022-07-11T02:59:59;33.50;99.90
17859;DHT22;35426;30.698;104.050;2022-07-11T03:02:37;34.00;99.90
17859;DHT22;35426;30.698;104.050;2022-07-11T03:05:11;33.80;99.90
17859;DHT22;35426;30.698;104.050;2022-07-11T03:08:02;34.00;99.90
17859;DHT22;35426;30.698;104.050;2022-07-11T03:10:36;33.90;99.90
17859;DHT22;35426;30.698;104.050;2022-07-11T03:13:13;33.40;99.90
17859;DHT22;35426;30.698;104.050;2022-07-11T03:16:08;34.10;99.90
17859;DHT22;35426;30.698;104.050;2022-07-11T03:19:02;34.80;99.90
17859;DHT22;35426;30.698;104.050;2022-07-11T03:21:35;34.80;99.90
17859;DHT22;35426;30.698;104.050;2022-07-11T03:24:27;34.10;99.90
17859;DHT22;35426;30.698;104.050;2022-07-11T03:27:18;33.90;99.90
17859;DHT22;35426;30.698;104.050;2022-07-11T03:30:09;34.20;99.90
17859;DHT22;35426;30.698;104.050;2022-07-11T03:32:47;34.50;99.90
17859;DHT22;35426;30.698;104.050;2022-07-11T03:35:26;34.50;99.90
17859;DHT22;35426;30.698;104.050;2022-07-11T03:38:34;34.80;99.90
17859;DHT22;35426;30.698;104.050;2022-07-11T03:41:07;34.90;99.90
17859;DHT22;35426;30.698;104.050;2022-07-11T03:43:42;35.50;99.90
17859;DHT22;35426;30.698;104.050;2022-07-11T03:46:16;35.50;99.90
17859;DHT22;35426;30.698;104.050;2022-07-11T03:54:21;36.10;99.90
17859;DHT22;35426;30.698;104.050;2022-07-11T03:56:55;37.20;99.90
17859;DHT22;35426;30.698;104.050;2022-07-11T04:05:00;37.40;99.90
17859;DHT22;35426;30.698;104.050;2022-07-11T04:07:33;36.60;99.90
17859;DHT22;35426;30.698;104.050;2022-07-11T04:10:07;36.10;99.90
17859;DHT22;35426;30.698;104.050;2022-07-11T04:12:42;36.40;99.90
17859;DHT22;35426;30.698;104.050;2022-07-11T04:15:16;36.20;99.90
17859;DHT22;35426;30.698;104.050;2022-07-11T04:18:08;35.60;99.90
17859;DHT22;35426;30.698;104.050;2022-07-11T04:20:43;36.50;99.90
17859;DHT22;35426;30.698;104.050;2022-07-11T04:23:17;36.70;99.90
17859;DHT22;35426;30.698;104.050;2022-07-11T04:25:51;37.10;99.90
17859;DHT22;35426;30.698;104.050;2022-07-11T04:28:25;36.80;99.90
17859;DHT22;35426;30.698;104.050;2022-07-11T04:30:59;36.50;99.90
17859;DHT22;35426;30.698;104.050;2022-07-11T04:33:33;36.60;99.90
17859;DHT22;35426;30.698;104.050;2022-07-11T04:36:09;36.20;99.90
17859;DHT22;35426;30.698;104.050;2022-07-11T04:38:43;36.70;99.90
17859;DHT22;35426;30.698;104.050;2022-07-11T04:41:21;36.40;99.90
17859;DHT22;35426;30.698;104.050;2022-07-11T04:43:59;36.60;99.90
17859;DHT22;35426;30.698;104.050;2022-07-11T04:46:33;36.30;99.90
17859;DHT22;35426;30.698;104.050;2022-07-11T04:49:07;36.30;99.90
17859;DHT22;35426;30.698;104.050;2022-07-11T04:51:43;36.50;99.90
17859;DHT22;35426;30.698;104.050;2022-07-11T04:54:17;36.50;99.90
17859;DHT22;35426;30.698;104.050;2022-07-11T04:57:08;35.60;99.90
17859;DHT22;35426;30.698;104.050;2022-07-11T04:59:43;36.10;99.90
17859;DHT22;35426;30.698;104.050;2022-07-11T05:05:25;36.30;99.90
17859;DHT22;35426;30.698;104.050;2022-07-11T05:08:02;36.50;99.90
17859;DHT22;35426;30.698;104.050;2022-07-11T05:10:35;35.80;99.90
17859;DHT22;35426;30.698;104.050;2022-07-11T05:13:15;36.00;99.90
17859;DHT22;35426;30.698;104.050;2022-07-11T05:15:49;35.90;99.90
17859;DHT22;35426;30.698;104.050;2022-07-11T05:18:23;35.90;99.90
17859;DHT22;35426;30.698;104.050;2022-07-11T05:20:58;36.00;99.90
17859;DHT22;35426;30.698;104.050;2022-07-11T05:23:35;36.40;99.90
17859;DHT22;35426;30.698;104.050;2022-07-11T05:26:09;37.10;99.90
17859;DHT22;35426;30.698;104.050;2022-07-11T05:28:46;36.20;99.90
17859;DHT22;35426;30.698;104.050;2022-07-11T05:31:19;36.60;99.90
17859;DHT22;35426;30.698;104.050;2022-07-11T05:34:09;36.60;99.90
17859;DHT22;35426;30.698;104.050;2022-07-11T05:36:43;36.60;99.90
17859;DHT22;35426;30.698;104.050;2022-07-11T05:39:21;36.60;99.90
17859;DHT22;35426;30.698;104.050;2022-07-11T05:41:55;37.50;99.90
17859;DHT22;35426;30.698;104.050;2022-07-11T05:44:29;37.10;99.90
17859;DHT22;35426;30.698;104.050;2022-07-11T05:47:03;36.70;99.90
17859;DHT22;35426;30.698;104.050;2022-07-11T05:49:55;36.70;99.90
17859;DHT22;35426;30.698;104.050;2022-07-11T05:52:34;36.40;99.90
17859;DHT22;35426;30.698;104.050;2022-07-11T05:55:11;36.20;99.90
17859;DHT22;35426;30.698;104.050;2022-07-11T05:57:48;36.00;99.90
17859;DHT22;35426;30.698;104.050;2022-07-11T06:00:22;36.40;99.90
17859;DHT22;35426;30.698;104.050;2022-07-11T06:02:58;36.00;99.90
17859;DHT22;35426;30.698;104.050;2022-07-11T06:05:33;36.30;99.90
17859;DHT22;35426;30.698;104.050;2022-07-11T06:08:24;36.60;99.90
17859;DHT22;35426;30.698;104.050;2022-07-11T06:11:34;36.00;99.90
17859;DHT22;35426;30.698;104.050;2022-07-11T06:14:09;36.10;99.90
17859;DHT22;35426;30.698;104.050;2022-07-11T06:16:44;36.10;99.90
17859;DHT22;35426;30.698;104.050;2022-07-11T06:19:35;35.80;99.90
17859;DHT22;35426;30.698;104.050;2022-07-11T06:22:09;35.80;99.90
17859;DHT22;35426;30.698;104.050;2022-07-11T06:24:42;35.90;99.90
17859;DHT22;35426;30.698;104.050;2022-07-11T06:27:19;36.10;99.90
17859;DHT22;35426;30.698;104.050;2022-07-11T06:29:53;36.10;99.90
17859;DHT22;35426;30.698;104.050;2022-07-11T06:32:27;36.50;99.90
17859;DHT22;35426;30.698;104.050;2022-07-11T06:35:18;37.00;99.90
17859;DHT22;35426;30.698;104.050;2022-07-11T06:37:52;37.00;99.90
17859;DHT22;35426;30.698;104.050;2022-07-11T06:40:27;37.30;99.90
17859;DHT22;35426;30.698;104.050;2022-07-11T06:43:03;37.30;99.90
17859;DHT22;35426;30.698;104.050;2022-07-11T06:45:38;37.40;99.90
17859;DHT22;35426;30.698;104.050;2022-07-11T06:48:12;37.50;99.90
17859;DHT22;35426;30.698;104.050;2022-07-11T06:50:50;37.60;99.90
17859;DHT22;35426;30.698;104.050;2022-07-11T06:53:24;37.70;99.90
17859;DHT22;35426;30.698;104.050;2022-07-11T06:56:16;37.70;99.90
17859;DHT22;35426;30.698;104.050;2022-07-11T06:58:52;37.00;99.90
17859;DHT22;35426;30.698;104.050;2022-07-11T07:07:14;36.90;99.90
17859;DHT22;35426;30.698;104.050;2022-07-11T07:09:51;37.00;99.90
17859;DHT22;35426;30.698;104.050;2022-07-11T07:12:29;36.10;99.90
17859;DHT22;35426;30.698;104.050;2022-07-11T07:15:05;36.20;99.90
17859;DHT22;35426;30.698;104.050;2022-07-11T07:18:04;36.40;99.90
17859;DHT22;35426;30.698;104.050;2022-07-11T07:20:39;35.60;99.90
17859;DHT22;35426;30.698;104.050;2022-07-11T07:23:14;35.80;99.90
17859;DHT22;35426;30.698;104.050;2022-07-11T07:25:49;35.80;99.90
17859;DHT22;35426;30.698;104.050;2022-07-11T07:28:23;35.70;99.90
17859;DHT22;35426;30.698;104.050;2022-07-11T07:31:00;36.00;99.90
17859;DHT22;35426;30.698;104.050;2022-07-11T07:33:41;36.20;99.90
17859;DHT22;35426;30.698;104.050;2022-07-11T07:36:16;36.60;99.90
17859;DHT22;35426;30.698;104.050;2022-07-11T07:38:50;36.80;99.90
17859;DHT22;35426;30.698;104.050;2022-07-11T07:41:25;36.60;99.90
17859;DHT22;35426;30.698;104.050;2022-07-11T07:44:00;36.70;99.90
17859;DHT22;35426;30.698;104.050;2022-07-11T07:49:46;36.00;99.90
17859;DHT22;35426;30.698;104.050;2022-07-11T07:55:29;35.90;99.90
17859;DHT22;35426;30.698;104.050;2022-07-11T07:58:03;35.90;99.90
17859;DHT22;35426;30.698;104.050;2022-07-11T08:00:37;35.50;99.90
17859;DHT22;35426;30.698;104.050;2022-07-11T08:03:43;35.50;99.90
17859;DHT22;35426;30.698;104.050;2022-07-11T08:06:47;35.60;99.90
17859;DHT22;35426;30.698;104.050;2022-07-11T08:09:21;35.80;99.90
17859;DHT22;35426;30.698;104.050;2022-07-11T08:12:12;35.50;99.90
17859;DHT22;35426;30.698;104.050;2022-07-11T08:14:47;35.50;99.90
17859;DHT22;35426;30.698;104.050;2022-07-11T08:17:28;35.60;99.90
17859;DHT22;35426;30.698;104.050;2022-07-11T08:25:26;35.20;99.90
17859;DHT22;35426;30.698;104.050;2022-07-11T08:28:00;35.20;99.90
17859;DHT22;35426;30.698;104.050;2022-07-11T08:30:33;35.00;99.90
17859;DHT22;35426;30.698;104.050;2022-07-11T08:33:10;34.90;99.90
17859;DHT22;35426;30.698;104.050;2022-07-11T08:46:58;34.90;99.90
17859;DHT22;35426;30.698;104.050;2022-07-11T08:49:33;34.40;99.90
17859;DHT22;35426;30.698;104.050;2022-07-11T08:52:10;34.40;99.90
17859;DHT22;35426;30.698;104.050;2022-07-11T08:54:45;34.30;99.90
17859;DHT22;35426;30.698;104.050;2022-07-11T08:57:19;34.40;99.90
17859;DHT22;35426;30.698;104.050;2022-07-11T08:59:54;34.30;99.90
17859;DHT22;35426;30.698;104.050;2022-07-11T09:02:29;34.30;99.90
17859;DHT22;35426;30.698;104.050;2022-07-11T09:05:09;34.20;99.90
17859;DHT22;35426;30.698;104.050;2022-07-11T09:07:46;34.30;99.90
17859;DHT22;35426;30.698;104.050;2022-07-11T09:10:20;34.40;99.90
17859;DHT22;35426;30.698;104.050;2022-07-11T09:13:05;34.20;99.90
17859;DHT22;35426;30.698;104.050;2022-07-11T09:15:40;34.30;99.90
17859;DHT22;35426;30.698;104.050;2022-07-11T09:18:35;34.60;99.90
17859;DHT22;35426;30.698;104.050;2022-07-11T09:21:11;34.90;99.90
17859;DHT22;35426;30.698;104.050;2022-07-11T09:27:15;34.80;99.90
17859;DHT22;35426;30.698;104.050;2022-07-11T09:30:15;34.50;99.90
17859;DHT22;35426;30.698;104.050;2022-07-11T09:32:55;34.90;99.90
17859;DHT22;35426;30.698;104.050;2022-07-11T09:35:30;35.00;99.90
17859;DHT22;35426;30.698;104.050;2022-07-11T09:38:07;34.80;99.90
17859;DHT22;35426;30.698;104.050;2022-07-11T09:43:35;35.00;99.90
17859;DHT22;35426;30.698;104.050;2022-07-11T09:46:10;35.10;99.90
17859;DHT22;35426;30.698;104.050;2022-07-11T09:48:45;35.20;99.90
17859;DHT22;35426;30.698;104.050;2022-07-11T09:51:26;35.40;99.90
17859;DHT22;35426;30.698;104.050;2022-07-11T09:54:00;35.40;99.90
17859;DHT22;35426;30.698;104.050;2022-07-11T09:56:39;35.20;99.90
17859;DHT22;35426;30.698;104.050;2022-07-11T09:59:46;35.40;99.90
17859;DHT22;35426;30.698;104.050;2022-07-11T10:02:27;35.30;99.90
17859;DHT22;35426;30.698;104.050;2022-07-11T10:05:02;35.30;99.90
17859;DHT22;35426;30.698;104.050;2022-07-11T10:07:37;35.20;99.90
17859;DHT22;35426;30.698;104.050;2022-07-11T10:10:24;35.10;99.90
17859;DHT22;35426;30.698;104.050;2022-07-11T10:13:00;35.00;99.90
17859;DHT22;35426;30.698;104.050;2022-07-11T10:15:54;35.10;99.90
17859;DHT22;35426;30.698;104.050;2022-07-11T10:18:35;35.00;99.90
17859;DHT22;35426;30.698;104.050;2022-07-11T10:21:38;34.90;99.90
17859;DHT22;35426;30.698;104.050;2022-07-11T10:24:32;35.00;99.90
17859;DHT22;35426;30.698;104.050;2022-07-11T10:27:29;34.90;99.90
17859;DHT22;35426;30.698;104.050;2022-07-11T10:30:11;34.80;99.90
17859;DHT22;35426;30.698;104.050;2022-07-11T10:33:20;34.70;99.90
17859;DHT22;35426;30.698;104.050;2022-07-11T10:35:55;34.70;99.90
17859;DHT22;35426;30.698;104.050;2022-07-11T10:39:13;34.70;99.90
17859;DHT22;35426;30.698;104.050;2022-07-11T10:41:49;34.70;99.90
17859;DHT22;35426;30.698;104.050;2022-07-11T10:44:23;34.50;99.90
17859;DHT22;35426;30.698;104.050;2022-07-11T10:47:00;34.40;99.90
17859;DHT22;35426;30.698;104.050;2022-07-11T10:49:51;34.30;99.90
17859;DHT22;35426;30.698;104.050;2022-07-11T10:53:00;34.40;99.90
17859;DHT22;35426;30.698;104.050;2022-07-11T10:55:43;34.20;99.90
17859;DHT22;35426;30.698;104.050;2022-07-11T10:58:26;34.20;99.90
17859;DHT22;35426;30.698;104.050;2022-07-11T11:01:11;34.20;99.90
17859;DHT22;35426;30.698;104.050;2022-07-11T11:04:46;34.10;99.90
17859;DHT22;35426;30.698;104.050;2022-07-11T11:07:35;34.10;99.90
17859;DHT22;35426;30.698;104.050;2022-07-11T11:13:24;34.30;99.90
17859;DHT22;35426;30.698;104.050;2022-07-11T11:15:58;34.20;99.90
17859;DHT22;35426;30.698;104.050;2022-07-11T11:18:43;34.10;99.90
17859;DHT22;35426;30.698;104.050;2022-07-11T11:21:21;34.00;99.90
17859;DHT22;35426;30.698;104.050;2022-07-11T11:24:07;33.90;99.90
17859;DHT22;35426;30.698;104.050;2022-07-11T11:26:51;33.90;99.90
17859;DHT22;35426;30.698;104.050;2022-07-11T11:29:27;33.80;99.90
17859;DHT22;35426;30.698;104.050;2022-07-11T11:32:02;33.80;99.90
17859;DHT22;35426;30.698;104.050;2022-07-11T11:34:52;33.70;99.90
17859;DHT22;35426;30.698;104.050;2022-07-11T11:37:31;33.80;99.90
17859;DHT22;35426;30.698;104.050;2022-07-11T11:40:24;33.70;99.90
17859;DHT22;35426;30.698;104.050;2022-07-11T11:43:00;33.60;99.90
17859;DHT22;35426;30.698;104.050;2022-07-11T11:45:39;33.70;99.90
17859;DHT22;35426;30.698;104.050;2022-07-11T11:48:33;33.70;99.90
17859;DHT22;35426;30.698;104.050;2022-07-11T11:51:08;33.60;99.90
17859;DHT22;35426;30.698;104.050;2022-07-11T11:53:46;33.50;99.90
17859;DHT22;35426;30.698;104.050;2022-07-11T11:56:36;33.30;99.90
17859;DHT22;35426;30.698;104.050;2022-07-11T11:59:12;33.30;99.90
17859;DHT22;35426;30.698;104.050;2022-07-11T12:01:47;33.20;99.90
17859;DHT22;35426;30.698;104.050;2022-07-11T12:04:21;33.20;99.90
17859;DHT22;35426;30.698;104.050;2022-07-11T12:06:57;33.20;99.90
17859;DHT22;35426;30.698;104.050;2022-07-11T12:09:51;33.20;99.90
17859;DHT22;35426;30.698;104.050;2022-07-11T12:15:56;33.00;99.90
17859;DHT22;35426;30.698;104.050;2022-07-11T12:18:43;32.90;99.90
17859;DHT22;35426;30.698;104.050;2022-07-11T12:21:37;32.80;99.90
17859;DHT22;35426;30.698;104.050;2022-07-11T12:24:13;32.70;99.90
17859;DHT22;35426;30.698;104.050;2022-07-11T12:27:10;32.70;99.90
17859;DHT22;35426;30.698;104.050;2022-07-11T12:29:45;32.70;99.90
17859;DHT22;35426;30.698;104.050;2022-07-11T12:32:24;32.60;99.90
17859;DHT22;35426;30.698;104.050;2022-07-11T12:34:57;32.60;99.90
17859;DHT22;35426;30.698;104.050;2022-07-11T12:37:38;32.80;99.90
17859;DHT22;35426;30.698;104.050;2022-07-11T12:40:15;32.80;99.90
17859;DHT22;35426;30.698;104.050;2022-07-11T12:42:51;32.70;99.90
17859;DHT22;35426;30.698;104.050;2022-07-11T12:45:26;32.70;99.90
17859;DHT22;35426;30.698;104.050;2022-07-11T12:47:59;32.70;99.90
17859;DHT22;35426;30.698;104.050;2022-07-11T12:50:33;32.70;99.90
17859;DHT22;35426;30.698;104.050;2022-07-11T12:53:08;32.70;99.90
17859;DHT22;35426;30.698;104.050;2022-07-11T12:55:42;32.80;99.90
17859;DHT22;35426;30.698;104.050;2022-07-11T12:58:19;32.80;99.90
17859;DHT22;35426;30.698;104.050;2022-07-11T13:00:57;32.70;99.90
17859;DHT22;35426;30.698;104.050;2022-07-11T13:03:51;32.70;99.90
17859;DHT22;35426;30.698;104.050;2022-07-11T13:06:25;32.60;99.90
17859;DHT22;35426;30.698;104.050;2022-07-11T13:09:15;32.60;99.90
17859;DHT22;35426;30.698;104.050;2022-07-11T13:15:00;32.50;99.90
17859;DHT22;35426;30.698;104.050;2022-07-11T13:17:43;32.50;99.90
17859;DHT22;35426;30.698;104.050;2022-07-11T13:20:20;32.40;99.90
17859;DHT22;35426;30.698;104.050;2022-07-11T13:22:57;32.40;99.90
17859;DHT22;35426;30.698;104.050;2022-07-11T13:28:24;32.60;99.90
17859;DHT22;35426;30.698;104.050;2022-07-11T13:31:00;32.60;99.90
17859;DHT22;35426;30.698;104.050;2022-07-11T13:33:52;32.80;99.90
17859;DHT22;35426;30.698;104.050;2022-07-11T13:36:27;32.60;99.90
17859;DHT22;35426;30.698;104.050;2022-07-11T13:39:02;32.40;99.90
17859;DHT22;35426;30.698;104.050;2022-07-11T13:41:37;32.50;99.90
17859;DHT22;35426;30.698;104.050;2022-07-11T13:44:11;32.40;99.90
17859;DHT22;35426;30.698;104.050;2022-07-11T13:46:47;32.50;99.90
17859;DHT22;35426;30.698;104.050;2022-07-11T13:49:20;32.50;99.90
17859;DHT22;35426;30.698;104.050;2022-07-11T13:51:58;32.40;99.90
17859;DHT22;35426;30.698;104.050;2022-07-11T13:54:57;32.50;99.90
17859;DHT22;35426;30.698;104.050;2022-07-11T13:57:32;32.40;99.90
17859;DHT22;35426;30.698;104.050;2022-07-11T14:00:07;32.50;99.90
17859;DHT22;35426;30.698;104.050;2022-07-11T14:02:43;32.60;99.90
17859;DHT22;35426;30.698;104.050;2022-07-11T14:08:09;32.50;99.90
17859;DHT22;35426;30.698;104.050;2022-07-11T14:10:44;32.40;99.90
17859;DHT22;35426;30.698;104.050;2022-07-11T14:13:20;32.40;99.90
17859;DHT22;35426;30.698;104.050;2022-07-11T14:16:13;32.30;99.90
17859;DHT22;35426;30.698;104.050;2022-07-11T14:18:58;32.40;99.90
17859;DHT22;35426;30.698;104.050;2022-07-11T14:21:37;32.40;99.90
17859;DHT22;35426;30.698;104.050;2022-07-11T14:24:20;32.20;99.90
17859;DHT22;35426;30.698;104.050;2022-07-11T14:26:54;32.20;99.90
17859;DHT22;35426;30.698;104.050;2022-07-11T14:32:42;32.10;99.90
17859;DHT22;35426;30.698;104.050;2022-07-11T14:35:19;32.10;99.90
17859;DHT22;35426;30.698;104.050;2022-07-11T14:37:53;32.00;99.90
17859;DHT22;35426;30.698;104.050;2022-07-11T14:40:40;32.00;99.90
17859;DHT22;35426;30.698;104.050;2022-07-11T14:43:18;32.10;99.90
17859;DHT22;35426;30.698;104.050;2022-07-11T14:46:08;32.00;99.90
17859;DHT22;35426;30.698;104.050;2022-07-11T14:48:43;32.00;99.90
17859;DHT22;35426;30.698;104.050;2022-07-11T14:51:20;31.90;99.90
17859;DHT22;35426;30.698;104.050;2022-07-11T14:54:32;32.00;99.90
17859;DHT22;35426;30.698;104.050;2022-07-11T14:57:08;31.80;99.90
17859;DHT22;35426;30.698;104.050;2022-07-11T14:59:42;31.90;99.90
17859;DHT22;35426;30.698;104.050;2022-07-11T15:02:16;31.80;99.90
17859;DHT22;35426;30.698;104.050;2022-07-11T15:05:11;31.80;99.90
17859;DHT22;35426;30.698;104.050;2022-07-11T15:07:48;31.70;99.90
17859;DHT22;35426;30.698;104.050;2022-07-11T15:10:56;31.80;99.90
17859;DHT22;35426;30.698;104.050;2022-07-11T15:13:46;31.70;99.90
17859;DHT22;35426;30.698;104.050;2022-07-11T15:16:20;31.80;99.90
17859;DHT22;35426;30.698;104.050;2022-07-11T15:21:47;31.80;99.90
17859;DHT22;35426;30.698;104.050;2022-07-11T15:27:29;31.70;99.90
17859;DHT22;35426;30.698;104.050;2022-07-11T15:30:19;31.60;99.90
17859;DHT22;35426;30.698;104.050;2022-07-11T15:36:13;31.50;99.90
17859;DHT22;35426;30.698;104.050;2022-07-11T15:39:00;31.50;99.90
17859;DHT22;35426;30.698;104.050;2022-07-11T15:41:35;31.40;99.90
17859;DHT22;35426;30.698;104.050;2022-07-11T15:44:12;31.40;99.90
17859;DHT22;35426;30.698;104.050;2022-07-11T15:46:47;31.40;99.90
17859;DHT22;35426;30.698;104.050;2022-07-11T15:49:39;31.40;99.90
17859;DHT22;35426;30.698;104.050;2022-07-11T15:52:14;31.40;99.90
17859;DHT22;35426;30.698;104.050;2022-07-11T15:54:49;31.40;99.90
17859;DHT22;35426;30.698;104.050;2022-07-11T15:57:24;31.40;99.90
17859;DHT22;35426;30.698;104.050;2022-07-11T16:00:03;31.40;99.90
17859;DHT22;35426;30.698;104.050;2022-07-11T16:02:50;31.40;99.90
17859;DHT22;35426;30.698;104.050;2022-07-11T16:05:26;31.30;99.90
17859;DHT22;35426;30.698;104.050;2022-07-11T16:08:00;31.30;99.90
17859;DHT22;35426;30.698;104.050;2022-07-11T16:10:34;31.30;99.90
17859;DHT22;35426;30.698;104.050;2022-07-11T16:13:33;31.30;99.90
17859;DHT22;35426;30.698;104.050;2022-07-11T16:16:26;31.20;99.90
17859;DHT22;35426;30.698;104.050;2022-07-11T16:19:01;31.20;99.90
17859;DHT22;35426;30.698;104.050;2022-07-11T16:21:36;31.20;99.90
17859;DHT22;35426;30.698;104.050;2022-07-11T16:24:12;31.20;99.90
17859;DHT22;35426;30.698;104.050;2022-07-11T16:26:47;31.20;99.90
17859;DHT22;35426;30.698;104.050;2022-07-11T16:29:21;31.20;99.90
17859;DHT22;35426;30.698;104.050;2022-07-11T16:31:57;31.20;99.90
17859;DHT22;35426;30.698;104.050;2022-07-11T16:34:36;31.20;99.90
17859;DHT22;35426;30.698;104.050;2022-07-11T16:37:10;31.20;99.90
17859;DHT22;35426;30.698;104.050;2022-07-11T16:39:45;31.20;99.90
17859;DHT22;35426;30.698;104.050;2022-07-11T16:42:39;31.20;99.90
17859;DHT22;35426;30.698;104.050;2022-07-11T16:45:30;31.20;99.90
17859;DHT22;35426;30.698;104.050;2022-07-11T16:48:06;31.20;99.90
17859;DHT22;35426;30.698;104.050;2022-07-11T16:59:32;31.10;99.90
17859;DHT22;35426;30.698;104.050;2022-07-11T17:02:24;31.10;99.90
17859;DHT22;35426;30.698;104.050;2022-07-11T17:11:36;30.90;99.90
17859;DHT22;35426;30.698;104.050;2022-07-11T17:14:11;30.90;99.90
17859;DHT22;35426;30.698;104.050;2022-07-11T17:17:01;30.80;99.90
17859;DHT22;35426;30.698;104.050;2022-07-11T17:19:35;30.80;99.90
17859;DHT22;35426;30.698;104.050;2022-07-11T17:22:46;30.80;99.90
17859;DHT22;35426;30.698;104.050;2022-07-11T17:28:31;30.80;99.90
17859;DHT22;35426;30.698;104.050;2022-07-11T17:31:23;30.80;99.90
17859;DHT22;35426;30.698;104.050;2022-07-11T17:34:13;30.70;99.90
17859;DHT22;35426;30.698;104.050;2022-07-11T17:36:47;30.80;99.90
17859;DHT22;35426;30.698;104.050;2022-07-11T17:39:54;30.80;99.90
17859;DHT22;35426;30.698;104.050;2022-07-11T17:42:46;30.90;99.90
17859;DHT22;35426;30.698;104.050;2022-07-11T17:45:23;30.90;99.90
17859;DHT22;35426;30.698;104.050;2022-07-11T17:48:13;30.80;99.90
17859;DHT22;35426;30.698;104.050;2022-07-11T17:50:47;30.80;99.90
17859;DHT22;35426;30.698;104.050;2022-07-11T17:53:56;30.80;99.90
17859;DHT22;35426;30.698;104.050;2022-07-11T17:56:49;31.00;99.90
17859;DHT22;35426;30.698;104.050;2022-07-11T17:59:24;31.00;99.90
17859;DHT22;35426;30.698;104.050;2022-07-11T18:02:16;31.00;99.90
17859;DHT22;35426;30.698;104.050;2022-07-11T18:04:51;31.00;99.90
17859;DHT22;35426;30.698;104.050;2022-07-11T18:07:26;31.00;99.90
17859;DHT22;35426;30.698;104.050;2022-07-11T18:13:13;31.10;99.90
17859;DHT22;35426;30.698;104.050;2022-07-11T18:15:46;31.00;99.90
17859;DHT22;35426;30.698;104.050;2022-07-11T18:18:38;31.00;99.90
17859;DHT22;35426;30.698;104.050;2022-07-11T18:24:19;30.90;99.90
17859;DHT22;35426;30.698;104.050;2022-07-11T18:27:03;30.90;99.90
17859;DHT22;35426;30.698;104.050;2022-07-11T18:29:39;30.90;99.90
17859;DHT22;35426;30.698;104.050;2022-07-11T18:32:30;31.00;99.90